Vandenberg Air Force Base
KVBG : now visible

Airfield :











YOU CAN JOIN US ON...

 
LOGIN :

Register | Disclaimer

   EN    FR    IT 

 









Legend :    VFR   Marginal VFR   IFR   Intensive IFR   Very Intensive IFR
Visi :
Ceiling :
>= 8 km
>= 3000ft
5 to 8 km
1000 to 3000 ft
1500m to 5 km
500 to 1000 ft
800 to 1500m
200 to 500 ft
< 800m
< 200 ft
Symbols :   Thunderstorms  Fog  Heavy snow  Heavy precipitations  Wind > 20 kt






- Airport Elevation : 369 ft


KVBG - Vandenberg Air Force Base

CURRENT METAR :
  • 121658Z 31004KT 5SM BR OVC004 13/12 A3005 RMK AO2A SLP179 T01250118

EXPIRED METARs :
  • 121558Z 14004KT 5SM BR OVC004 12/11 A3003 RMK AO2A SLP172 P0001 T01170114
  • 121532Z 14004KT 4SM BR OVC004 12/11 A3003 RMK AO2A SLP172
  • 121458Z 12005KT 2 1/2SM BR OVC004 11/11 A3003 RMK AO2A VIS 2V3 DZE1450 SLP173 P0000 60000 T01140111 52011

TAF AMD TAF KVBG
Valid from the 12 at 16:00 until the 13 at 20:00 UTC


121631Z 1216/1320 VRB06KT 6000 BR OVC004 QNH2998INS
BECMG 1219/1220 32006KT 9999 NSW BKN008 QNH3000INS
BECMG 1302/1303 33009KT 6000 BR OVC006 QNH2995INS
BECMG 1305/1306 VRB06KT 2400 BR OVC002 QNH2997INS
BECMG 1308/1309 VRB06KT 0800 FG VV001 QNH2999INS
BECMG 1316/1317 30006KT 4800 BR OVC004 QNH3000INS
BECMG 1317/1318 32009KT 9999 NSW OVC009 QNH2999INS TX17/1222Z TN09/1312Z
KZLA FIR / North America



MET'MAP, your aeronautical weather chart ! - Copyright ORBIFLY December 2007 - Disclaimer

ORBIFLY MET'MAP TEAM :

Programming & Development : Alexandra Zaïnal
Concept & original design : Baudouin d'Aumeries
Assistance for programming : Marc-Olivier Méhu
Technical & hardware support : Manuel Goepfert

Contact : metmap@orbifly.com




SOURCES & CREDITS :

   NOAA       Earth
Advisory